sensor_id;sensor_type;location;lat;lon;timestamp;temperature;humidity
75130;HTU21D;63703;44.716;37.846;2023-04-03T00:00:16;11.14;68.58
75130;HTU21D;63703;44.716;37.846;2023-04-03T00:02:42;11.16;68.65
75130;HTU21D;63703;44.716;37.846;2023-04-03T00:05:07;11.17;68.62
75130;HTU21D;63703;44.716;37.846;2023-04-03T00:07:34;11.18;68.49
75130;HTU21D;63703;44.716;37.846;2023-04-03T00:10:00;11.23;68.51
75130;HTU21D;63703;44.716;37.846;2023-04-03T00:12:25;11.24;68.62
75130;HTU21D;63703;44.716;37.846;2023-04-03T00:14:51;11.26;68.46
75130;HTU21D;63703;44.716;37.846;2023-04-03T00:17:17;11.29;68.62
75130;HTU21D;63703;44.716;37.846;2023-04-03T00:19:43;11.31;68.65
75130;HTU21D;63703;44.716;37.846;2023-04-03T00:22:09;11.34;68.97
75130;HTU21D;63703;44.716;37.846;2023-04-03T00:24:35;11.37;69.15
75130;HTU21D;63703;44.716;37.846;2023-04-03T00:27:01;11.37;69.08
75130;HTU21D;63703;44.716;37.846;2023-04-03T00:29:27;11.36;68.95
75130;HTU21D;63703;44.716;37.846;2023-04-03T00:31:53;11.37;69.07
75130;HTU21D;63703;44.716;37.846;2023-04-03T00:34:19;11.37;69.19
75130;HTU21D;63703;44.716;37.846;2023-04-03T00:36:45;11.36;69.11
75130;HTU21D;63703;44.716;37.846;2023-04-03T00:39:11;11.34;69.20
75130;HTU21D;63703;44.716;37.846;2023-04-03T00:41:37;11.38;69.31
75130;HTU21D;63703;44.716;37.846;2023-04-03T00:44:19;11.44;70.77
75130;HTU21D;63703;44.716;37.846;2023-04-03T00:46:45;11.39;69.55
75130;HTU21D;63703;44.716;37.846;2023-04-03T00:49:11;11.41;69.62
75130;HTU21D;63703;44.716;37.846;2023-04-03T00:51:38;11.44;70.08
75130;HTU21D;63703;44.716;37.846;2023-04-03T00:54:06;11.44;70.20
75130;HTU21D;63703;44.716;37.846;2023-04-03T00:56:33;11.45;70.19
75130;HTU21D;63703;44.716;37.846;2023-04-03T00:59:02;11.45;70.42
75130;HTU21D;63703;44.716;37.846;2023-04-03T01:01:29;11.44;70.48
75130;HTU21D;63703;44.716;37.846;2023-04-03T01:03:58;11.46;70.74
75130;HTU21D;63703;44.716;37.846;2023-04-03T01:06:28;11.46;71.20
75130;HTU21D;63703;44.716;37.846;2023-04-03T01:09:03;11.45;71.23
75130;HTU21D;63703;44.716;37.846;2023-04-03T01:11:29;11.44;71.26
75130;HTU21D;63703;44.716;37.846;2023-04-03T01:13:56;11.45;71.58
75130;HTU21D;63703;44.716;37.846;2023-04-03T01:16:23;11.45;71.95
75130;HTU21D;63703;44.716;37.846;2023-04-03T01:18:49;11.45;72.20
75130;HTU21D;63703;44.716;37.846;2023-04-03T01:24:10;11.46;72.84
75130;HTU21D;63703;44.716;37.846;2023-04-03T01:26:33;11.42;72.65
75130;HTU21D;63703;44.716;37.846;2023-04-03T01:28:59;11.43;72.80
75130;HTU21D;63703;44.716;37.846;2023-04-03T01:33:54;11.44;73.68
75130;HTU21D;63703;44.716;37.846;2023-04-03T01:36:26;11.43;74.32
75130;HTU21D;63703;44.716;37.846;2023-04-03T01:38:54;11.39;74.30
75130;HTU21D;63703;44.716;37.846;2023-04-03T01:41:21;11.38;74.57
75130;HTU21D;63703;44.716;37.846;2023-04-03T01:43:48;11.36;74.89
75130;HTU21D;63703;44.716;37.846;2023-04-03T01:46:15;11.33;75.28
75130;HTU21D;63703;44.716;37.846;2023-04-03T01:48:42;11.33;75.99
75130;HTU21D;63703;44.716;37.846;2023-04-03T01:51:09;11.30;76.39
75130;HTU21D;63703;44.716;37.846;2023-04-03T01:53:35;11.24;76.47
75130;HTU21D;63703;44.716;37.846;2023-04-03T01:56:01;11.18;76.41
75130;HTU21D;63703;44.716;37.846;2023-04-03T01:58:29;11.14;76.33
75130;HTU21D;63703;44.716;37.846;2023-04-03T02:00:55;11.17;76.89
75130;HTU21D;63703;44.716;37.846;2023-04-03T02:03:21;11.13;77.44
75130;HTU21D;63703;44.716;37.846;2023-04-03T02:05:47;11.12;77.82
75130;HTU21D;63703;44.716;37.846;2023-04-03T02:08:13;11.10;78.24
75130;HTU21D;63703;44.716;37.846;2023-04-03T02:10:39;11.07;78.45
75130;HTU21D;63703;44.716;37.846;2023-04-03T02:13:05;11.08;78.98
75130;HTU21D;63703;44.716;37.846;2023-04-03T02:15:31;11.07;79.30
75130;HTU21D;63703;44.716;37.846;2023-04-03T02:17:57;11.05;79.43
75130;HTU21D;63703;44.716;37.846;2023-04-03T02:20:23;11.03;79.17
75130;HTU21D;63703;44.716;37.846;2023-04-03T02:22:49;11.04;79.45
75130;HTU21D;63703;44.716;37.846;2023-04-03T02:25:15;11.07;79.63
75130;HTU21D;63703;44.716;37.846;2023-04-03T02:27:43;11.05;79.90
75130;HTU21D;63703;44.716;37.846;2023-04-03T02:30:09;11.03;80.04
75130;HTU21D;63703;44.716;37.846;2023-04-03T02:32:36;11.04;80.45
75130;HTU21D;63703;44.716;37.846;2023-04-03T02:35:02;11.04;80.69
75130;HTU21D;63703;44.716;37.846;2023-04-03T02:37:28;11.02;80.88
75130;HTU21D;63703;44.716;37.846;2023-04-03T02:39:56;11.01;81.14
75130;HTU21D;63703;44.716;37.846;2023-04-03T02:42:22;10.96;80.91
75130;HTU21D;63703;44.716;37.846;2023-04-03T02:44:48;10.98;81.13
75130;HTU21D;63703;44.716;37.846;2023-04-03T02:47:13;10.97;81.64
75130;HTU21D;63703;44.716;37.846;2023-04-03T02:49:39;10.95;81.84
75130;HTU21D;63703;44.716;37.846;2023-04-03T02:52:05;10.92;82.42
75130;HTU21D;63703;44.716;37.846;2023-04-03T02:54:31;10.92;82.49
75130;HTU21D;63703;44.716;37.846;2023-04-03T02:57:01;10.85;82.55
75130;HTU21D;63703;44.716;37.846;2023-04-03T02:59:27;10.86;82.40
75130;HTU21D;63703;44.716;37.846;2023-04-03T03:01:53;10.86;82.59
75130;HTU21D;63703;44.716;37.846;2023-04-03T03:04:21;10.86;82.94
75130;HTU21D;63703;44.716;37.846;2023-04-03T03:06:47;10.81;82.94
75130;HTU21D;63703;44.716;37.846;2023-04-03T03:09:13;10.82;82.96
75130;HTU21D;63703;44.716;37.846;2023-04-03T03:11:42;10.83;83.34
75130;HTU21D;63703;44.716;37.846;2023-04-03T03:14:07;10.83;83.57
75130;HTU21D;63703;44.716;37.846;2023-04-03T03:16:33;10.74;83.48
75130;HTU21D;63703;44.716;37.846;2023-04-03T03:19:00;10.81;83.82
75130;HTU21D;63703;44.716;37.846;2023-04-03T03:21:26;10.77;83.96
75130;HTU21D;63703;44.716;37.846;2023-04-03T03:23:52;10.72;84.28
75130;HTU21D;63703;44.716;37.846;2023-04-03T03:26:18;10.70;84.10
75130;HTU21D;63703;44.716;37.846;2023-04-03T03:28:44;10.73;84.39
75130;HTU21D;63703;44.716;37.846;2023-04-03T03:31:11;10.66;84.50
75130;HTU21D;63703;44.716;37.846;2023-04-03T03:33:39;10.65;84.53
75130;HTU21D;63703;44.716;37.846;2023-04-03T03:36:05;10.64;84.62
75130;HTU21D;63703;44.716;37.846;2023-04-03T03:38:31;10.64;84.89
75130;HTU21D;63703;44.716;37.846;2023-04-03T03:40:58;10.66;85.37
75130;HTU21D;63703;44.716;37.846;2023-04-03T03:43:24;10.62;85.41
75130;HTU21D;63703;44.716;37.846;2023-04-03T03:45:52;10.59;85.36
75130;HTU21D;63703;44.716;37.846;2023-04-03T03:48:19;10.59;85.32
75130;HTU21D;63703;44.716;37.846;2023-04-03T03:50:47;10.62;85.52
75130;HTU21D;63703;44.716;37.846;2023-04-03T03:53:13;10.60;85.65
75130;HTU21D;63703;44.716;37.846;2023-04-03T03:55:39;10.59;85.65
75130;HTU21D;63703;44.716;37.846;2023-04-03T03:58:05;10.58;85.71
75130;HTU21D;63703;44.716;37.846;2023-04-03T04:00:33;10.58;85.90
75130;HTU21D;63703;44.716;37.846;2023-04-03T04:02:59;10.55;85.97
75130;HTU21D;63703;44.716;37.846;2023-04-03T04:05:28;10.52;86.26
75130;HTU21D;63703;44.716;37.846;2023-04-03T04:07:54;10.48;86.28
75130;HTU21D;63703;44.716;37.846;2023-04-03T04:10:21;10.48;86.32
75130;HTU21D;63703;44.716;37.846;2023-04-03T04:12:47;10.48;86.50
75130;HTU21D;63703;44.716;37.846;2023-04-03T04:15:15;10.44;86.49
75130;HTU21D;63703;44.716;37.846;2023-04-03T04:17:42;10.41;86.45
75130;HTU21D;63703;44.716;37.846;2023-04-03T04:20:11;10.41;86.39
75130;HTU21D;63703;44.716;37.846;2023-04-03T04:22:39;10.41;86.48
75130;HTU21D;63703;44.716;37.846;2023-04-03T04:25:06;10.40;86.57
75130;HTU21D;63703;44.716;37.846;2023-04-03T04:27:32;10.44;86.78
75130;HTU21D;63703;44.716;37.846;2023-04-03T04:29:59;10.43;86.80
75130;HTU21D;63703;44.716;37.846;2023-04-03T04:32:26;10.41;86.78
75130;HTU21D;63703;44.716;37.846;2023-04-03T04:34:52;10.41;86.75
75130;HTU21D;63703;44.716;37.846;2023-04-03T04:37:18;10.42;86.70
75130;HTU21D;63703;44.716;37.846;2023-04-03T04:39:46;10.44;86.74
75130;HTU21D;63703;44.716;37.846;2023-04-03T04:42:12;10.43;86.76
75130;HTU21D;63703;44.716;37.846;2023-04-03T04:44:40;10.43;86.81
75130;HTU21D;63703;44.716;37.846;2023-04-03T04:47:06;10.46;86.76
75130;HTU21D;63703;44.716;37.846;2023-04-03T04:49:32;10.46;86.86
75130;HTU21D;63703;44.716;37.846;2023-04-03T04:51:59;10.48;86.79
75130;HTU21D;63703;44.716;37.846;2023-04-03T04:54:28;10.50;86.76
75130;HTU21D;63703;44.716;37.846;2023-04-03T04:56:54;10.50;86.67
75130;HTU21D;63703;44.716;37.846;2023-04-03T04:59:21;10.49;86.60
75130;HTU21D;63703;44.716;37.846;2023-04-03T05:01:47;10.53;86.52
75130;HTU21D;63703;44.716;37.846;2023-04-03T05:04:15;10.50;86.41
75130;HTU21D;63703;44.716;37.846;2023-04-03T05:06:44;10.51;86.36
75130;HTU21D;63703;44.716;37.846;2023-04-03T05:09:15;10.54;86.15
75130;HTU21D;63703;44.716;37.846;2023-04-03T05:11:42;10.56;86.03
75130;HTU21D;63703;44.716;37.846;2023-04-03T05:14:09;10.57;85.93
75130;HTU21D;63703;44.716;37.846;2023-04-03T05:16:36;10.58;85.75
75130;HTU21D;63703;44.716;37.846;2023-04-03T05:19:03;10.59;85.63
75130;HTU21D;63703;44.716;37.846;2023-04-03T05:21:30;10.59;85.51
75130;HTU21D;63703;44.716;37.846;2023-04-03T05:24:00;10.59;85.42
75130;HTU21D;63703;44.716;37.846;2023-04-03T05:26:32;10.57;85.35
75130;HTU21D;63703;44.716;37.846;2023-04-03T05:29:00;10.63;85.13
75130;HTU21D;63703;44.716;37.846;2023-04-03T05:31:26;10.65;84.97
75130;HTU21D;63703;44.716;37.846;2023-04-03T05:33:56;10.70;84.87
75130;HTU21D;63703;44.716;37.846;2023-04-03T05:36:22;10.78;84.65
75130;HTU21D;63703;44.716;37.846;2023-04-03T05:38:53;10.84;84.43
75130;HTU21D;63703;44.716;37.846;2023-04-03T05:41:22;10.88;84.27
75130;HTU21D;63703;44.716;37.846;2023-04-03T05:43:49;10.97;84.00
75130;HTU21D;63703;44.716;37.846;2023-04-03T05:46:18;11.01;83.81
75130;HTU21D;63703;44.716;37.846;2023-04-03T05:48:48;11.09;83.56
75130;HTU21D;63703;44.716;37.846;2023-04-03T05:51:22;11.13;83.42
75130;HTU21D;63703;44.716;37.846;2023-04-03T05:53:54;11.18;83.23
75130;HTU21D;63703;44.716;37.846;2023-04-03T05:56:21;11.25;82.96
75130;HTU21D;63703;44.716;37.846;2023-04-03T05:58:47;11.30;82.68
75130;HTU21D;63703;44.716;37.846;2023-04-03T06:01:13;11.32;82.43
75130;HTU21D;63703;44.716;37.846;2023-04-03T06:03:40;11.32;82.02
75130;HTU21D;63703;44.716;37.846;2023-04-03T06:06:13;11.38;81.82
75130;HTU21D;63703;44.716;37.846;2023-04-03T06:08:39;11.42;81.69
75130;HTU21D;63703;44.716;37.846;2023-04-03T06:11:05;11.47;81.33
75130;HTU21D;63703;44.716;37.846;2023-04-03T06:13:32;11.55;81.10
75130;HTU21D;63703;44.716;37.846;2023-04-03T06:15:59;11.60;80.75
75130;HTU21D;63703;44.716;37.846;2023-04-03T06:18:24;11.67;80.30
75130;HTU21D;63703;44.716;37.846;2023-04-03T06:20:51;11.72;80.11
75130;HTU21D;63703;44.716;37.846;2023-04-03T06:23:17;11.83;79.47
75130;HTU21D;63703;44.716;37.846;2023-04-03T06:25:43;11.89;79.14
75130;HTU21D;63703;44.716;37.846;2023-04-03T06:28:09;12.01;78.94
75130;HTU21D;63703;44.716;37.846;2023-04-03T06:30:36;12.15;78.61
75130;HTU21D;63703;44.716;37.846;2023-04-03T06:33:03;12.30;78.38
75130;HTU21D;63703;44.716;37.846;2023-04-03T06:35:29;12.42;78.13
75130;HTU21D;63703;44.716;37.846;2023-04-03T06:37:56;12.50;77.72
75130;HTU21D;63703;44.716;37.846;2023-04-03T06:40:24;12.52;77.14
75130;HTU21D;63703;44.716;37.846;2023-04-03T06:42:51;12.57;76.98
75130;HTU21D;63703;44.716;37.846;2023-04-03T06:45:18;12.56;76.71
75130;HTU21D;63703;44.716;37.846;2023-04-03T06:47:44;12.56;76.60
75130;HTU21D;63703;44.716;37.846;2023-04-03T06:50:11;12.56;76.68
75130;HTU21D;63703;44.716;37.846;2023-04-03T06:52:40;12.53;76.78
75130;HTU21D;63703;44.716;37.846;2023-04-03T06:55:07;12.53;76.89
75130;HTU21D;63703;44.716;37.846;2023-04-03T06:57:33;12.52;76.81
75130;HTU21D;63703;44.716;37.846;2023-04-03T06:59:59;12.45;76.91
75130;HTU21D;63703;44.716;37.846;2023-04-03T07:02:25;12.41;76.99
75130;HTU21D;63703;44.716;37.846;2023-04-03T07:04:51;12.40;77.05
75130;HTU21D;63703;44.716;37.846;2023-04-03T07:07:19;12.45;77.09
75130;HTU21D;63703;44.716;37.846;2023-04-03T07:09:44;12.47;77.05
75130;HTU21D;63703;44.716;37.846;2023-04-03T07:12:12;12.50;76.96
75130;HTU21D;63703;44.716;37.846;2023-04-03T07:14:38;12.46;76.81
75130;HTU21D;63703;44.716;37.846;2023-04-03T07:17:04;12.44;77.14
75130;HTU21D;63703;44.716;37.846;2023-04-03T07:19:30;12.60;76.93
75130;HTU21D;63703;44.716;37.846;2023-04-03T07:21:57;12.73;76.81
75130;HTU21D;63703;44.716;37.846;2023-04-03T07:24:22;12.82;76.25
75130;HTU21D;63703;44.716;37.846;2023-04-03T07:26:50;12.85;76.28
75130;HTU21D;63703;44.716;37.846;2023-04-03T07:29:16;12.96;76.08
75130;HTU21D;63703;44.716;37.846;2023-04-03T07:31:42;13.01;75.66
75130;HTU21D;63703;44.716;37.846;2023-04-03T07:34:08;13.00;75.25
75130;HTU21D;63703;44.716;37.846;2023-04-03T07:36:33;12.97;75.40
75130;HTU21D;63703;44.716;37.846;2023-04-03T07:38:59;12.96;75.45
75130;HTU21D;63703;44.716;37.846;2023-04-03T07:41:25;13.02;75.10
75130;HTU21D;63703;44.716;37.846;2023-04-03T07:43:51;12.95;74.76
75130;HTU21D;63703;44.716;37.846;2023-04-03T07:46:17;12.82;75.31
75130;HTU21D;63703;44.716;37.846;2023-04-03T07:48:43;12.79;75.42
75130;HTU21D;63703;44.716;37.846;2023-04-03T07:51:09;12.76;75.64
75130;HTU21D;63703;44.716;37.846;2023-04-03T07:53:36;12.91;75.74
75130;HTU21D;63703;44.716;37.846;2023-04-03T07:56:02;13.04;75.49
75130;HTU21D;63703;44.716;37.846;2023-04-03T07:58:28;13.16;75.16
75130;HTU21D;63703;44.716;37.846;2023-04-03T08:00:54;13.26;75.11
75130;HTU21D;63703;44.716;37.846;2023-04-03T08:03:20;13.37;74.96
75130;HTU21D;63703;44.716;37.846;2023-04-03T08:05:48;13.54;74.84
75130;HTU21D;63703;44.716;37.846;2023-04-03T08:08:17;13.63;74.53
75130;HTU21D;63703;44.716;37.846;2023-04-03T08:10:43;13.64;74.26
75130;HTU21D;63703;44.716;37.846;2023-04-03T08:13:09;13.66;74.25
75130;HTU21D;63703;44.716;37.846;2023-04-03T08:15:36;13.76;74.16
75130;HTU21D;63703;44.716;37.846;2023-04-03T08:18:02;13.88;73.83
75130;HTU21D;63703;44.716;37.846;2023-04-03T08:20:28;13.98;73.38
75130;HTU21D;63703;44.716;37.846;2023-04-03T08:22:54;13.96;73.19
75130;HTU21D;63703;44.716;37.846;2023-04-03T08:25:20;13.98;72.90
75130;HTU21D;63703;44.716;37.846;2023-04-03T08:27:46;13.97;72.51
75130;HTU21D;63703;44.716;37.846;2023-04-03T08:30:13;13.98;72.51
75130;HTU21D;63703;44.716;37.846;2023-04-03T08:32:39;14.11;72.33
75130;HTU21D;63703;44.716;37.846;2023-04-03T08:35:07;14.23;71.91
75130;HTU21D;63703;44.716;37.846;2023-04-03T08:37:38;14.38;71.46
75130;HTU21D;63703;44.716;37.846;2023-04-03T08:40:06;14.44;71.10
75130;HTU21D;63703;44.716;37.846;2023-04-03T08:45:25;14.54;70.27
75130;HTU21D;63703;44.716;37.846;2023-04-03T08:48:06;14.68;69.34
75130;HTU21D;63703;44.716;37.846;2023-04-03T08:50:44;14.62;69.10
75130;HTU21D;63703;44.716;37.846;2023-04-03T08:53:35;14.58;69.31
75130;HTU21D;63703;44.716;37.846;2023-04-03T08:56:06;14.71;69.54
75130;HTU21D;63703;44.716;37.846;2023-04-03T09:03:40;14.94;69.07
75130;HTU21D;63703;44.716;37.846;2023-04-03T09:06:12;14.81;69.34
75130;HTU21D;63703;44.716;37.846;2023-04-03T09:11:25;14.74;69.38
75130;HTU21D;63703;44.716;37.846;2023-04-03T09:17:14;14.48;69.89
75130;HTU21D;63703;44.716;37.846;2023-04-03T09:22:32;13.97;70.62
75130;HTU21D;63703;44.716;37.846;2023-04-03T09:27:37;13.60;71.56
75130;HTU21D;63703;44.716;37.846;2023-04-03T09:30:03;13.44;71.95
75130;HTU21D;63703;44.716;37.846;2023-04-03T09:32:31;13.18;72.45
75130;HTU21D;63703;44.716;37.846;2023-04-03T09:35:02;13.00;73.28
75130;HTU21D;63703;44.716;37.846;2023-04-03T09:37:40;12.88;74.18
75130;HTU21D;63703;44.716;37.846;2023-04-03T09:40:37;12.87;74.92
75130;HTU21D;63703;44.716;37.846;2023-04-03T09:43:27;12.75;75.25
75130;HTU21D;63703;44.716;37.846;2023-04-03T09:45:55;12.67;74.64
75130;HTU21D;63703;44.716;37.846;2023-04-03T09:48:25;12.59;75.05
75130;HTU21D;63703;44.716;37.846;2023-04-03T09:50:59;12.48;75.37
75130;HTU21D;63703;44.716;37.846;2023-04-03T09:53:41;12.49;75.98
75130;HTU21D;63703;44.716;37.846;2023-04-03T09:58:52;12.57;75.87
75130;HTU21D;63703;44.716;37.846;2023-04-03T10:01:56;12.57;76.11
75130;HTU21D;63703;44.716;37.846;2023-04-03T10:04:23;12.70;75.87
75130;HTU21D;63703;44.716;37.846;2023-04-03T10:06:54;12.84;75.86
75130;HTU21D;63703;44.716;37.846;2023-04-03T10:12:05;13.16;75.70
75130;HTU21D;63703;44.716;37.846;2023-04-03T10:18:22;13.85;74.39
75130;HTU21D;63703;44.716;37.846;2023-04-03T10:29:40;14.18;72.05
75130;HTU21D;63703;44.716;37.846;2023-04-03T10:35:06;14.00;72.18
75130;HTU21D;63703;44.716;37.846;2023-04-03T10:46:23;13.73;72.42
75130;HTU21D;63703;44.716;37.846;2023-04-03T10:50:00;13.73;72.51
75130;HTU21D;63703;44.716;37.846;2023-04-03T10:52:35;13.66;73.04
75130;HTU21D;63703;44.716;37.846;2023-04-03T10:57:55;13.59;72.82
75130;HTU21D;63703;44.716;37.846;2023-04-03T11:00:23;13.54;73.35
75130;HTU21D;63703;44.716;37.846;2023-04-03T11:02:57;13.41;73.33
75130;HTU21D;63703;44.716;37.846;2023-04-03T11:08:02;13.24;73.70
75130;HTU21D;63703;44.716;37.846;2023-04-03T11:10:42;13.21;73.91
75130;HTU21D;63703;44.716;37.846;2023-04-03T11:13:18;13.17;74.02
75130;HTU21D;63703;44.716;37.846;2023-04-03T11:15:45;13.08;74.08
75130;HTU21D;63703;44.716;37.846;2023-04-03T11:18:19;13.11;74.43
75130;HTU21D;63703;44.716;37.846;2023-04-03T11:21:00;13.21;74.67
75130;HTU21D;63703;44.716;37.846;2023-04-03T11:23:36;13.26;74.09
75130;HTU21D;63703;44.716;37.846;2023-04-03T11:26:13;13.41;74.21
75130;HTU21D;63703;44.716;37.846;2023-04-03T11:28:40;13.56;73.88
75130;HTU21D;63703;44.716;37.846;2023-04-03T11:36:56;13.46;73.86
75130;HTU21D;63703;44.716;37.846;2023-04-03T11:39:30;13.31;74.28
75130;HTU21D;63703;44.716;37.846;2023-04-03T11:48:54;13.14;75.15
75130;HTU21D;63703;44.716;37.846;2023-04-03T11:51:02;13.06;74.80
75130;HTU21D;63703;44.716;37.846;2023-04-03T11:53:47;13.02;74.78
75130;HTU21D;63703;44.716;37.846;2023-04-03T12:01:56;12.85;75.12
75130;HTU21D;63703;44.716;37.846;2023-04-03T12:04:26;12.74;75.20
75130;HTU21D;63703;44.716;37.846;2023-04-03T12:12:30;12.67;76.56
75130;HTU21D;63703;44.716;37.846;2023-04-03T12:17:44;12.60;76.19
75130;HTU21D;63703;44.716;37.846;2023-04-03T12:23:33;12.76;76.34
75130;HTU21D;63703;44.716;37.846;2023-04-03T12:26:06;12.74;76.08
75130;HTU21D;63703;44.716;37.846;2023-04-03T12:28:45;12.72;76.04
75130;HTU21D;63703;44.716;37.846;2023-04-03T12:31:12;12.65;76.28
75130;HTU21D;63703;44.716;37.846;2023-04-03T12:34:04;12.67;76.57
75130;HTU21D;63703;44.716;37.846;2023-04-03T12:45:30;12.57;77.07
75130;HTU21D;63703;44.716;37.846;2023-04-03T12:47:51;12.53;76.59
75130;HTU21D;63703;44.716;37.846;2023-04-03T12:50:29;12.51;76.92
75130;HTU21D;63703;44.716;37.846;2023-04-03T12:53:00;12.51;76.75
75130;HTU21D;63703;44.716;37.846;2023-04-03T12:55:28;12.50;76.66
75130;HTU21D;63703;44.716;37.846;2023-04-03T12:57:54;12.47;76.79
75130;HTU21D;63703;44.716;37.846;2023-04-03T13:00:29;12.37;77.18
75130;HTU21D;63703;44.716;37.846;2023-04-03T13:02:56;12.42;77.08
75130;HTU21D;63703;44.716;37.846;2023-04-03T13:05:23;12.37;77.31
75130;HTU21D;63703;44.716;37.846;2023-04-03T13:08:05;12.41;78.37
75130;HTU21D;63703;44.716;37.846;2023-04-03T13:10:45;12.29;78.14
75130;HTU21D;63703;44.716;37.846;2023-04-03T13:13:14;12.25;77.96
75130;HTU21D;63703;44.716;37.846;2023-04-03T13:15:44;12.22;77.98
75130;HTU21D;63703;44.716;37.846;2023-04-03T13:18:32;12.22;78.41
75130;HTU21D;63703;44.716;37.846;2023-04-03T13:21:07;12.21;78.29
75130;HTU21D;63703;44.716;37.846;2023-04-03T13:23:35;12.20;78.17
75130;HTU21D;63703;44.716;37.846;2023-04-03T13:26:03;12.22;78.13
75130;HTU21D;63703;44.716;37.846;2023-04-03T13:28:30;12.19;78.30
75130;HTU21D;63703;44.716;37.846;2023-04-03T13:31:24;12.13;79.35
75130;HTU21D;63703;44.716;37.846;2023-04-03T13:33:57;12.08;79.01
75130;HTU21D;63703;44.716;37.846;2023-04-03T13:36:32;12.10;79.13
75130;HTU21D;63703;44.716;37.846;2023-04-03T13:39:26;12.15;79.09
75130;HTU21D;63703;44.716;37.846;2023-04-03T13:41:56;12.19;78.79
75130;HTU21D;63703;44.716;37.846;2023-04-03T13:46:57;12.07;79.09
75130;HTU21D;63703;44.716;37.846;2023-04-03T13:51:52;11.89;79.48
75130;HTU21D;63703;44.716;37.846;2023-04-03T13:54:22;11.86;79.70
75130;HTU21D;63703;44.716;37.846;2023-04-03T13:56:57;11.85;80.10
75130;HTU21D;63703;44.716;37.846;2023-04-03T13:59:30;11.82;79.98
75130;HTU21D;63703;44.716;37.846;2023-04-03T14:02:32;11.83;80.29
75130;HTU21D;63703;44.716;37.846;2023-04-03T14:05:00;11.81;79.78
75130;HTU21D;63703;44.716;37.846;2023-04-03T14:07:30;11.83;79.72
75130;HTU21D;63703;44.716;37.846;2023-04-03T14:09:56;11.85;79.52
75130;HTU21D;63703;44.716;37.846;2023-04-03T14:12:38;11.87;79.55
75130;HTU21D;63703;44.716;37.846;2023-04-03T14:15:27;11.86;79.91
75130;HTU21D;63703;44.716;37.846;2023-04-03T14:17:54;11.78;79.46
75130;HTU21D;63703;44.716;37.846;2023-04-03T14:20:23;11.75;79.65
75130;HTU21D;63703;44.716;37.846;2023-04-03T14:22:50;11.71;79.76
75130;HTU21D;63703;44.716;37.846;2023-04-03T14:25:18;11.71;79.69
75130;HTU21D;63703;44.716;37.846;2023-04-03T14:27:47;11.71;79.66
75130;HTU21D;63703;44.716;37.846;2023-04-03T14:30:24;11.75;79.94
75130;HTU21D;63703;44.716;37.846;2023-04-03T14:32:51;11.67;79.83
75130;HTU21D;63703;44.716;37.846;2023-04-03T14:35:18;11.67;79.87
75130;HTU21D;63703;44.716;37.846;2023-04-03T14:37:45;11.67;79.89
75130;HTU21D;63703;44.716;37.846;2023-04-03T14:40:15;11.62;79.97
75130;HTU21D;63703;44.716;37.846;2023-04-03T14:42:43;11.62;79.96
75130;HTU21D;63703;44.716;37.846;2023-04-03T14:45:12;11.63;79.96
75130;HTU21D;63703;44.716;37.846;2023-04-03T14:47:46;11.69;79.98
75130;HTU21D;63703;44.716;37.846;2023-04-03T14:50:17;11.71;79.76
75130;HTU21D;63703;44.716;37.846;2023-04-03T14:52:44;11.70;79.75
75130;HTU21D;63703;44.716;37.846;2023-04-03T14:55:13;11.69;79.75
75130;HTU21D;63703;44.716;37.846;2023-04-03T14:57:40;11.71;79.65
75130;HTU21D;63703;44.716;37.846;2023-04-03T15:00:11;11.72;79.65
75130;HTU21D;63703;44.716;37.846;2023-04-03T15:02:38;11.70;79.65
75130;HTU21D;63703;44.716;37.846;2023-04-03T15:05:07;11.69;79.66
75130;HTU21D;63703;44.716;37.846;2023-04-03T15:07:39;11.71;79.59
75130;HTU21D;63703;44.716;37.846;2023-04-03T15:10:21;11.73;79.67
75130;HTU21D;63703;44.716;37.846;2023-04-03T15:12:49;11.74;79.43
75130;HTU21D;63703;44.716;37.846;2023-04-03T15:15:17;11.75;79.37
75130;HTU21D;63703;44.716;37.846;2023-04-03T15:17:46;11.78;79.28
75130;HTU21D;63703;44.716;37.846;2023-04-03T15:20:16;11.77;79.27
75130;HTU21D;63703;44.716;37.846;2023-04-03T15:22:42;11.75;79.27
75130;HTU21D;63703;44.716;37.846;2023-04-03T15:25:09;11.72;79.28
75130;HTU21D;63703;44.716;37.846;2023-04-03T15:27:36;11.72;79.19
75130;HTU21D;63703;44.716;37.846;2023-04-03T15:30:04;11.71;79.18
75130;HTU21D;63703;44.716;37.846;2023-04-03T15:32:31;11.69;79.18
75130;HTU21D;63703;44.716;37.846;2023-04-03T15:34:57;11.69;79.12
75130;HTU21D;63703;44.716;37.846;2023-04-03T15:37:23;11.70;79.06
75130;HTU21D;63703;44.716;37.846;2023-04-03T15:39:49;11.71;79.05
75130;HTU21D;63703;44.716;37.846;2023-04-03T15:42:15;11.71;79.15
75130;HTU21D;63703;44.716;37.846;2023-04-03T15:44:41;11.69;79.36
75130;HTU21D;63703;44.716;37.846;2023-04-03T15:47:07;11.68;79.56
75130;HTU21D;63703;44.716;37.846;2023-04-03T15:49:34;11.66;79.70
75130;HTU21D;63703;44.716;37.846;2023-04-03T15:52:00;11.67;79.95
75130;HTU21D;63703;44.716;37.846;2023-04-03T15:54:27;11.62;80.18
75130;HTU21D;63703;44.716;37.846;2023-04-03T15:56:55;11.59;80.40
75130;HTU21D;63703;44.716;37.846;2023-04-03T15:59:21;11.56;80.68
75130;HTU21D;63703;44.716;37.846;2023-04-03T16:01:48;11.53;80.94
75130;HTU21D;63703;44.716;37.846;2023-04-03T16:04:16;11.48;81.15
75130;HTU21D;63703;44.716;37.846;2023-04-03T16:06:42;11.43;81.42
75130;HTU21D;63703;44.716;37.846;2023-04-03T16:09:08;11.41;81.67
75130;HTU21D;63703;44.716;37.846;2023-04-03T16:11:35;11.37;81.79
75130;HTU21D;63703;44.716;37.846;2023-04-03T16:14:02;11.33;81.90
75130;HTU21D;63703;44.716;37.846;2023-04-03T16:16:29;11.34;82.09
75130;HTU21D;63703;44.716;37.846;2023-04-03T16:18:55;11.29;82.32
75130;HTU21D;63703;44.716;37.846;2023-04-03T16:21:22;11.28;82.48
75130;HTU21D;63703;44.716;37.846;2023-04-03T16:23:48;11.25;82.62
75130;HTU21D;63703;44.716;37.846;2023-04-03T16:26:15;11.23;82.66
75130;HTU21D;63703;44.716;37.846;2023-04-03T16:28:43;11.18;82.78
75130;HTU21D;63703;44.716;37.846;2023-04-03T16:31:09;11.14;82.85
75130;HTU21D;63703;44.716;37.846;2023-04-03T16:33:35;11.13;83.00
75130;HTU21D;63703;44.716;37.846;2023-04-03T16:36:03;11.08;83.27
75130;HTU21D;63703;44.716;37.846;2023-04-03T16:38:30;11.00;83.43
75130;HTU21D;63703;44.716;37.846;2023-04-03T16:40:56;10.93;83.45
75130;HTU21D;63703;44.716;37.846;2023-04-03T16:43:26;10.87;83.39
75130;HTU21D;63703;44.716;37.846;2023-04-03T16:45:52;10.83;83.36
75130;HTU21D;63703;44.716;37.846;2023-04-03T16:48:18;10.81;83.30
75130;HTU21D;63703;44.716;37.846;2023-04-03T16:50:47;10.81;83.39
75130;HTU21D;63703;44.716;37.846;2023-04-03T16:53:15;10.77;83.47
75130;HTU21D;63703;44.716;37.846;2023-04-03T16:55:41;10.72;83.51